sensor_id;sensor_type;location;lat;lon;timestamp;P1;durP1;ratioP1;P2;durP2;ratioP2
76155;SDS011;64906;51.290;7.348;2023-11-21T00:00:12;17.58;;;12.45;;
76155;SDS011;64906;51.290;7.348;2023-11-21T00:02:39;19.23;;;12.68;;
76155;SDS011;64906;51.290;7.348;2023-11-21T00:05:06;17.73;;;12.02;;
76155;SDS011;64906;51.290;7.348;2023-11-21T00:07:38;20.42;;;12.50;;
76155;SDS011;64906;51.290;7.348;2023-11-21T00:10:04;18.20;;;12.15;;
76155;SDS011;64906;51.290;7.348;2023-11-21T00:12:30;19.00;;;12.52;;
76155;SDS011;64906;51.290;7.348;2023-11-21T00:14:56;18.40;;;11.82;;
76155;SDS011;64906;51.290;7.348;2023-11-21T00:17:21;18.20;;;12.43;;
76155;SDS011;64906;51.290;7.348;2023-11-21T00:19:47;17.17;;;11.37;;
76155;SDS011;64906;51.290;7.348;2023-11-21T00:22:12;16.58;;;10.68;;
76155;SDS011;64906;51.290;7.348;2023-11-21T00:24:37;18.33;;;11.73;;
76155;SDS011;64906;51.290;7.348;2023-11-21T00:27:03;16.93;;;11.03;;
76155;SDS011;64906;51.290;7.348;2023-11-21T00:29:28;19.85;;;11.65;;
76155;SDS011;64906;51.290;7.348;2023-11-21T00:31:54;15.93;;;10.70;;
76155;SDS011;64906;51.290;7.348;2023-11-21T00:34:19;17.20;;;11.20;;
76155;SDS011;64906;51.290;7.348;2023-11-21T00:36:45;15.52;;;10.60;;
76155;SDS011;64906;51.290;7.348;2023-11-21T00:39:10;15.87;;;10.37;;
76155;SDS011;64906;51.290;7.348;2023-11-21T00:41:36;16.00;;;10.75;;
76155;SDS011;64906;51.290;7.348;2023-11-21T00:44:02;16.23;;;10.32;;
76155;SDS011;64906;51.290;7.348;2023-11-21T00:46:27;18.13;;;11.30;;
76155;SDS011;64906;51.290;7.348;2023-11-21T00:48:54;15.63;;;10.98;;
76155;SDS011;64906;51.290;7.348;2023-11-21T00:51:20;17.67;;;11.10;;
76155;SDS011;64906;51.290;7.348;2023-11-21T00:53:47;18.58;;;11.35;;
76155;SDS011;64906;51.290;7.348;2023-11-21T00:56:12;17.33;;;10.70;;
76155;SDS011;64906;51.290;7.348;2023-11-21T00:58:38;17.20;;;10.80;;
76155;SDS011;64906;51.290;7.348;2023-11-21T01:01:03;16.45;;;10.40;;
76155;SDS011;64906;51.290;7.348;2023-11-21T01:03:29;17.48;;;10.38;;
76155;SDS011;64906;51.290;7.348;2023-11-21T01:05:54;18.43;;;11.13;;
76155;SDS011;64906;51.290;7.348;2023-11-21T01:08:19;14.47;;;9.63;;
76155;SDS011;64906;51.290;7.348;2023-11-21T01:10:45;15.60;;;9.70;;
76155;SDS011;64906;51.290;7.348;2023-11-21T01:13:10;14.63;;;9.88;;
76155;SDS011;64906;51.290;7.348;2023-11-21T01:15:35;16.23;;;10.07;;
76155;SDS011;64906;51.290;7.348;2023-11-21T01:18:01;15.87;;;9.97;;
76155;SDS011;64906;51.290;7.348;2023-11-21T01:20:26;14.40;;;9.70;;
76155;SDS011;64906;51.290;7.348;2023-11-21T01:22:52;16.92;;;10.20;;
76155;SDS011;64906;51.290;7.348;2023-11-21T01:25:19;15.40;;;10.05;;
76155;SDS011;64906;51.290;7.348;2023-11-21T01:27:44;16.35;;;9.98;;
76155;SDS011;64906;51.290;7.348;2023-11-21T01:30:09;14.37;;;9.07;;
76155;SDS011;64906;51.290;7.348;2023-11-21T01:32:38;13.23;;;8.85;;
76155;SDS011;64906;51.290;7.348;2023-11-21T01:35:05;14.60;;;9.38;;
76155;SDS011;64906;51.290;7.348;2023-11-21T01:37:31;14.65;;;8.98;;
76155;SDS011;64906;51.290;7.348;2023-11-21T01:39:58;15.90;;;9.50;;
76155;SDS011;64906;51.290;7.348;2023-11-21T01:42:24;14.73;;;9.32;;
76155;SDS011;64906;51.290;7.348;2023-11-21T01:44:49;15.63;;;8.98;;
76155;SDS011;64906;51.290;7.348;2023-11-21T01:47:14;14.00;;;8.80;;
76155;SDS011;64906;51.290;7.348;2023-11-21T01:49:43;14.65;;;9.43;;
76155;SDS011;64906;51.290;7.348;2023-11-21T01:52:08;14.10;;;9.15;;
76155;SDS011;64906;51.290;7.348;2023-11-21T01:54:36;13.35;;;8.68;;
76155;SDS011;64906;51.290;7.348;2023-11-21T01:57:02;12.30;;;8.57;;
76155;SDS011;64906;51.290;7.348;2023-11-21T01:59:37;13.60;;;8.82;;
76155;SDS011;64906;51.290;7.348;2023-11-21T02:02:06;13.90;;;8.10;;
76155;SDS011;64906;51.290;7.348;2023-11-21T02:04:32;11.52;;;7.68;;
76155;SDS011;64906;51.290;7.348;2023-11-21T02:06:59;14.95;;;8.75;;
76155;SDS011;64906;51.290;7.348;2023-11-21T02:09:25;13.23;;;8.43;;
76155;SDS011;64906;51.290;7.348;2023-11-21T02:11:52;14.98;;;8.15;;
76155;SDS011;64906;51.290;7.348;2023-11-21T02:14:19;12.77;;;8.45;;
76155;SDS011;64906;51.290;7.348;2023-11-21T02:16:48;14.23;;;8.13;;
76155;SDS011;64906;51.290;7.348;2023-11-21T02:19:18;12.00;;;8.27;;
76155;SDS011;64906;51.290;7.348;2023-11-21T02:21:47;12.02;;;7.68;;
76155;SDS011;64906;51.290;7.348;2023-11-21T02:24:21;15.10;;;7.65;;
76155;SDS011;64906;51.290;7.348;2023-11-21T02:26:50;11.93;;;7.75;;
76155;SDS011;64906;51.290;7.348;2023-11-21T02:29:16;12.50;;;7.65;;
76155;SDS011;64906;51.290;7.348;2023-11-21T02:31:43;11.95;;;7.50;;
76155;SDS011;64906;51.290;7.348;2023-11-21T02:34:16;13.57;;;7.97;;
76155;SDS011;64906;51.290;7.348;2023-11-21T02:36:43;10.85;;;7.40;;
76155;SDS011;64906;51.290;7.348;2023-11-21T02:39:09;11.95;;;7.65;;
76155;SDS011;64906;51.290;7.348;2023-11-21T02:41:35;11.38;;;7.50;;
76155;SDS011;64906;51.290;7.348;2023-11-21T02:44:04;11.30;;;7.97;;
76155;SDS011;64906;51.290;7.348;2023-11-21T02:46:31;11.50;;;7.10;;
76155;SDS011;64906;51.290;7.348;2023-11-21T02:48:58;11.40;;;7.38;;
76155;SDS011;64906;51.290;7.348;2023-11-21T02:51:24;10.90;;;6.80;;
76155;SDS011;64906;51.290;7.348;2023-11-21T02:53:49;10.83;;;6.97;;
76155;SDS011;64906;51.290;7.348;2023-11-21T02:56:16;11.75;;;7.18;;
76155;SDS011;64906;51.290;7.348;2023-11-21T02:58:43;12.50;;;7.10;;
76155;SDS011;64906;51.290;7.348;2023-11-21T03:01:09;11.15;;;7.28;;
76155;SDS011;64906;51.290;7.348;2023-11-21T03:03:35;13.23;;;7.28;;
76155;SDS011;64906;51.290;7.348;2023-11-21T03:06:05;12.38;;;7.13;;
76155;SDS011;64906;51.290;7.348;2023-11-21T03:08:31;12.68;;;7.03;;
76155;SDS011;64906;51.290;7.348;2023-11-21T03:10:57;11.77;;;7.13;;
76155;SDS011;64906;51.290;7.348;2023-11-21T03:13:22;10.85;;;6.75;;
76155;SDS011;64906;51.290;7.348;2023-11-21T03:15:47;10.87;;;6.60;;
76155;SDS011;64906;51.290;7.348;2023-11-21T03:18:13;10.13;;;6.38;;
76155;SDS011;64906;51.290;7.348;2023-11-21T03:20:38;10.17;;;6.53;;
76155;SDS011;64906;51.290;7.348;2023-11-21T03:23:04;11.03;;;6.97;;
76155;SDS011;64906;51.290;7.348;2023-11-21T03:25:30;12.02;;;7.25;;
76155;SDS011;64906;51.290;7.348;2023-11-21T03:27:56;10.43;;;6.47;;
76155;SDS011;64906;51.290;7.348;2023-11-21T03:30:21;10.93;;;6.45;;
76155;SDS011;64906;51.290;7.348;2023-11-21T03:32:47;10.80;;;6.65;;
76155;SDS011;64906;51.290;7.348;2023-11-21T03:35:12;11.80;;;6.63;;
76155;SDS011;64906;51.290;7.348;2023-11-21T03:37:37;10.00;;;6.43;;
76155;SDS011;64906;51.290;7.348;2023-11-21T03:40:06;9.27;;;6.20;;
76155;SDS011;64906;51.290;7.348;2023-11-21T03:42:33;9.75;;;6.07;;
76155;SDS011;64906;51.290;7.348;2023-11-21T03:44:58;8.60;;;5.77;;
76155;SDS011;64906;51.290;7.348;2023-11-21T03:47:23;11.80;;;6.20;;
76155;SDS011;64906;51.290;7.348;2023-11-21T03:49:49;12.35;;;6.30;;
76155;SDS011;64906;51.290;7.348;2023-11-21T03:52:14;9.03;;;5.97;;
76155;SDS011;64906;51.290;7.348;2023-11-21T03:54:40;13.00;;;6.32;;
76155;SDS011;64906;51.290;7.348;2023-11-21T03:57:05;10.47;;;6.37;;
76155;SDS011;64906;51.290;7.348;2023-11-21T03:59:30;8.07;;;5.40;;
76155;SDS011;64906;51.290;7.348;2023-11-21T04:01:56;10.53;;;5.97;;
76155;SDS011;64906;51.290;7.348;2023-11-21T04:04:22;10.18;;;6.35;;
76155;SDS011;64906;51.290;7.348;2023-11-21T04:06:47;9.32;;;5.55;;
76155;SDS011;64906;51.290;7.348;2023-11-21T04:09:13;9.50;;;5.43;;
76155;SDS011;64906;51.290;7.348;2023-11-21T04:11:38;10.13;;;5.67;;
76155;SDS011;64906;51.290;7.348;2023-11-21T04:14:03;8.80;;;5.57;;
76155;SDS011;64906;51.290;7.348;2023-11-21T04:16:29;10.30;;;5.83;;
76155;SDS011;64906;51.290;7.348;2023-11-21T04:18:55;9.85;;;5.40;;
76155;SDS011;64906;51.290;7.348;2023-11-21T04:21:22;9.32;;;5.70;;
76155;SDS011;64906;51.290;7.348;2023-11-21T04:23:48;9.23;;;5.32;;
76155;SDS011;64906;51.290;7.348;2023-11-21T04:26:13;9.05;;;6.22;;
76155;SDS011;64906;51.290;7.348;2023-11-21T04:28:39;8.07;;;5.20;;
76155;SDS011;64906;51.290;7.348;2023-11-21T04:31:04;8.90;;;5.57;;
76155;SDS011;64906;51.290;7.348;2023-11-21T04:33:30;8.23;;;5.32;;
76155;SDS011;64906;51.290;7.348;2023-11-21T04:35:56;9.35;;;5.43;;
76155;SDS011;64906;51.290;7.348;2023-11-21T04:38:21;9.67;;;5.93;;
76155;SDS011;64906;51.290;7.348;2023-11-21T04:40:47;9.35;;;6.07;;
76155;SDS011;64906;51.290;7.348;2023-11-21T04:43:12;8.13;;;4.90;;
76155;SDS011;64906;51.290;7.348;2023-11-21T04:45:38;10.00;;;5.57;;
76155;SDS011;64906;51.290;7.348;2023-11-21T04:48:06;9.07;;;5.05;;
76155;SDS011;64906;51.290;7.348;2023-11-21T04:50:31;10.23;;;5.65;;
76155;SDS011;64906;51.290;7.348;2023-11-21T04:52:56;9.47;;;5.47;;
76155;SDS011;64906;51.290;7.348;2023-11-21T04:55:22;8.37;;;5.17;;
76155;SDS011;64906;51.290;7.348;2023-11-21T04:57:47;9.03;;;5.63;;
76155;SDS011;64906;51.290;7.348;2023-11-21T05:00:12;10.87;;;5.57;;
76155;SDS011;64906;51.290;7.348;2023-11-21T05:02:39;9.52;;;4.93;;
76155;SDS011;64906;51.290;7.348;2023-11-21T05:05:06;8.05;;;5.10;;
76155;SDS011;64906;51.290;7.348;2023-11-21T05:07:32;8.23;;;4.85;;
76155;SDS011;64906;51.290;7.348;2023-11-21T05:10:00;8.27;;;5.03;;
76155;SDS011;64906;51.290;7.348;2023-11-21T05:12:30;7.00;;;4.30;;
76155;SDS011;64906;51.290;7.348;2023-11-21T05:15:01;7.85;;;5.30;;
76155;SDS011;64906;51.290;7.348;2023-11-21T05:17:32;8.13;;;4.70;;
76155;SDS011;64906;51.290;7.348;2023-11-21T05:19:59;8.60;;;4.93;;
76155;SDS011;64906;51.290;7.348;2023-11-21T05:22:28;7.88;;;4.47;;
76155;SDS011;64906;51.290;7.348;2023-11-21T05:24:53;8.67;;;4.77;;
76155;SDS011;64906;51.290;7.348;2023-11-21T05:27:19;8.33;;;4.50;;
76155;SDS011;64906;51.290;7.348;2023-11-21T05:29:44;6.90;;;4.25;;
76155;SDS011;64906;51.290;7.348;2023-11-21T05:32:09;7.10;;;4.67;;
76155;SDS011;64906;51.290;7.348;2023-11-21T05:34:35;8.53;;;4.63;;
76155;SDS011;64906;51.290;7.348;2023-11-21T05:37:00;7.27;;;4.57;;
76155;SDS011;64906;51.290;7.348;2023-11-21T05:39:25;8.27;;;4.23;;
76155;SDS011;64906;51.290;7.348;2023-11-21T05:41:50;8.33;;;4.70;;
76155;SDS011;64906;51.290;7.348;2023-11-21T05:44:16;8.13;;;4.37;;
76155;SDS011;64906;51.290;7.348;2023-11-21T05:46:41;8.50;;;4.50;;
76155;SDS011;64906;51.290;7.348;2023-11-21T05:49:08;6.88;;;4.10;;
76155;SDS011;64906;51.290;7.348;2023-11-21T05:51:33;8.68;;;4.47;;
76155;SDS011;64906;51.290;7.348;2023-11-21T05:53:59;6.57;;;3.87;;
76155;SDS011;64906;51.290;7.348;2023-11-21T05:56:24;7.82;;;4.53;;
76155;SDS011;64906;51.290;7.348;2023-11-21T05:58:49;9.53;;;4.57;;
76155;SDS011;64906;51.290;7.348;2023-11-21T06:01:16;7.60;;;4.45;;
76155;SDS011;64906;51.290;7.348;2023-11-21T06:03:41;8.45;;;4.40;;
76155;SDS011;64906;51.290;7.348;2023-11-21T06:06:08;6.95;;;4.13;;
76155;SDS011;64906;51.290;7.348;2023-11-21T06:08:33;7.80;;;4.50;;
76155;SDS011;64906;51.290;7.348;2023-11-21T06:10:59;7.45;;;4.32;;
76155;SDS011;64906;51.290;7.348;2023-11-21T06:13:24;7.27;;;4.27;;
76155;SDS011;64906;51.290;7.348;2023-11-21T06:15:52;7.70;;;3.92;;
76155;SDS011;64906;51.290;7.348;2023-11-21T06:18:18;7.32;;;4.35;;
76155;SDS011;64906;51.290;7.348;2023-11-21T06:20:46;7.60;;;4.07;;
76155;SDS011;64906;51.290;7.348;2023-11-21T06:23:11;6.65;;;3.85;;
76155;SDS011;64906;51.290;7.348;2023-11-21T06:25:37;7.20;;;3.97;;
76155;SDS011;64906;51.290;7.348;2023-11-21T06:28:02;6.45;;;3.53;;
76155;SDS011;64906;51.290;7.348;2023-11-21T06:30:28;7.10;;;4.10;;
76155;SDS011;64906;51.290;7.348;2023-11-21T06:32:54;7.72;;;4.10;;
76155;SDS011;64906;51.290;7.348;2023-11-21T06:35:19;7.20;;;4.20;;
76155;SDS011;64906;51.290;7.348;2023-11-21T06:37:45;6.43;;;3.78;;
76155;SDS011;64906;51.290;7.348;2023-11-21T06:40:12;6.50;;;3.72;;
76155;SDS011;64906;51.290;7.348;2023-11-21T06:42:43;7.28;;;4.15;;
76155;SDS011;64906;51.290;7.348;2023-11-21T06:45:09;6.72;;;3.80;;
76155;SDS011;64906;51.290;7.348;2023-11-21T06:47:36;6.72;;;3.92;;
76155;SDS011;64906;51.290;7.348;2023-11-21T06:50:01;6.75;;;3.67;;
76155;SDS011;64906;51.290;7.348;2023-11-21T06:52:26;6.82;;;3.63;;
76155;SDS011;64906;51.290;7.348;2023-11-21T06:54:52;6.28;;;4.00;;
76155;SDS011;64906;51.290;7.348;2023-11-21T06:57:17;6.10;;;3.30;;
76155;SDS011;64906;51.290;7.348;2023-11-21T06:59:43;7.13;;;3.67;;
76155;SDS011;64906;51.290;7.348;2023-11-21T07:02:08;7.10;;;3.83;;
76155;SDS011;64906;51.290;7.348;2023-11-21T07:04:34;7.18;;;3.60;;
76155;SDS011;64906;51.290;7.348;2023-11-21T07:07:00;5.93;;;3.50;;
76155;SDS011;64906;51.290;7.348;2023-11-21T07:09:27;5.88;;;3.47;;
76155;SDS011;64906;51.290;7.348;2023-11-21T07:11:52;7.82;;;3.88;;
76155;SDS011;64906;51.290;7.348;2023-11-21T07:14:18;7.22;;;3.85;;
76155;SDS011;64906;51.290;7.348;2023-11-21T07:16:45;6.18;;;3.40;;
76155;SDS011;64906;51.290;7.348;2023-11-21T07:19:11;5.50;;;3.30;;
76155;SDS011;64906;51.290;7.348;2023-11-21T07:21:37;7.15;;;3.80;;
76155;SDS011;64906;51.290;7.348;2023-11-21T07:24:04;5.72;;;3.40;;
76155;SDS011;64906;51.290;7.348;2023-11-21T07:26:31;6.28;;;3.55;;
76155;SDS011;64906;51.290;7.348;2023-11-21T07:28:58;5.88;;;4.00;;
76155;SDS011;64906;51.290;7.348;2023-11-21T07:31:23;6.32;;;3.70;;
76155;SDS011;64906;51.290;7.348;2023-11-21T07:33:49;7.15;;;3.50;;
76155;SDS011;64906;51.290;7.348;2023-11-21T07:36:19;6.78;;;3.85;;
76155;SDS011;64906;51.290;7.348;2023-11-21T07:38:47;6.93;;;4.18;;
76155;SDS011;64906;51.290;7.348;2023-11-21T07:41:13;8.23;;;4.45;;
76155;SDS011;64906;51.290;7.348;2023-11-21T07:43:42;7.70;;;4.53;;
76155;SDS011;64906;51.290;7.348;2023-11-21T07:46:08;8.32;;;4.70;;
76155;SDS011;64906;51.290;7.348;2023-11-21T07:48:34;9.95;;;5.70;;
76155;SDS011;64906;51.290;7.348;2023-11-21T07:51:00;9.05;;;4.90;;
76155;SDS011;64906;51.290;7.348;2023-11-21T07:53:28;9.23;;;4.88;;
76155;SDS011;64906;51.290;7.348;2023-11-21T07:55:55;8.43;;;5.40;;
76155;SDS011;64906;51.290;7.348;2023-11-21T07:58:20;9.82;;;5.10;;
76155;SDS011;64906;51.290;7.348;2023-11-21T08:00:46;9.35;;;5.40;;
76155;SDS011;64906;51.290;7.348;2023-11-21T08:03:13;9.32;;;5.18;;
76155;SDS011;64906;51.290;7.348;2023-11-21T08:05:38;8.57;;;5.40;;
76155;SDS011;64906;51.290;7.348;2023-11-21T08:08:04;10.80;;;5.93;;
76155;SDS011;64906;51.290;7.348;2023-11-21T08:10:29;10.20;;;5.45;;
76155;SDS011;64906;51.290;7.348;2023-11-21T08:12:55;8.73;;;5.57;;
76155;SDS011;64906;51.290;7.348;2023-11-21T08:15:21;9.88;;;5.93;;
76155;SDS011;64906;51.290;7.348;2023-11-21T08:17:46;9.83;;;5.73;;
76155;SDS011;64906;51.290;7.348;2023-11-21T08:20:13;9.55;;;5.45;;
76155;SDS011;64906;51.290;7.348;2023-11-21T08:22:41;10.73;;;5.95;;
76155;SDS011;64906;51.290;7.348;2023-11-21T08:25:07;9.93;;;5.35;;
76155;SDS011;64906;51.290;7.348;2023-11-21T08:27:33;8.95;;;5.22;;
76155;SDS011;64906;51.290;7.348;2023-11-21T08:30:00;10.95;;;5.80;;
76155;SDS011;64906;51.290;7.348;2023-11-21T08:32:25;10.23;;;5.97;;
76155;SDS011;64906;51.290;7.348;2023-11-21T08:34:51;10.13;;;5.85;;
76155;SDS011;64906;51.290;7.348;2023-11-21T08:37:16;10.57;;;5.03;;
76155;SDS011;64906;51.290;7.348;2023-11-21T08:39:43;9.50;;;5.72;;
76155;SDS011;64906;51.290;7.348;2023-11-21T08:42:09;9.40;;;5.90;;
76155;SDS011;64906;51.290;7.348;2023-11-21T08:44:34;10.38;;;5.45;;
76155;SDS011;64906;51.290;7.348;2023-11-21T08:47:00;9.33;;;5.97;;
76155;SDS011;64906;51.290;7.348;2023-11-21T08:49:25;10.13;;;6.00;;
76155;SDS011;64906;51.290;7.348;2023-11-21T08:51:52;9.55;;;6.28;;
76155;SDS011;64906;51.290;7.348;2023-11-21T08:54:20;12.15;;;7.20;;
76155;SDS011;64906;51.290;7.348;2023-11-21T08:56:46;13.05;;;7.90;;
76155;SDS011;64906;51.290;7.348;2023-11-21T08:59:11;14.05;;;8.05;;
76155;SDS011;64906;51.290;7.348;2023-11-21T09:01:40;16.27;;;8.70;;
76155;SDS011;64906;51.290;7.348;2023-11-21T09:04:05;14.20;;;9.13;;
76155;SDS011;64906;51.290;7.348;2023-11-21T09:06:31;16.30;;;10.05;;
76155;SDS011;64906;51.290;7.348;2023-11-21T09:08:57;16.92;;;9.52;;
76155;SDS011;64906;51.290;7.348;2023-11-21T09:11:23;15.00;;;9.38;;
76155;SDS011;64906;51.290;7.348;2023-11-21T09:13:48;15.00;;;9.65;;
76155;SDS011;64906;51.290;7.348;2023-11-21T09:16:14;18.17;;;10.40;;
76155;SDS011;64906;51.290;7.348;2023-11-21T09:18:40;15.77;;;9.70;;
76155;SDS011;64906;51.290;7.348;2023-11-21T09:21:06;16.80;;;10.50;;
76155;SDS011;64906;51.290;7.348;2023-11-21T09:23:31;16.45;;;10.73;;
76155;SDS011;64906;51.290;7.348;2023-11-21T09:25:56;18.90;;;10.67;;
76155;SDS011;64906;51.290;7.348;2023-11-21T09:28:24;18.33;;;12.25;;
76155;SDS011;64906;51.290;7.348;2023-11-21T09:30:52;20.30;;;11.60;;
76155;SDS011;64906;51.290;7.348;2023-11-21T09:33:18;19.20;;;13.15;;
76155;SDS011;64906;51.290;7.348;2023-11-21T09:35:43;19.10;;;12.45;;
76155;SDS011;64906;51.290;7.348;2023-11-21T09:38:09;21.02;;;12.40;;
76155;SDS011;64906;51.290;7.348;2023-11-21T09:40:36;20.77;;;12.75;;
76155;SDS011;64906;51.290;7.348;2023-11-21T09:43:22;20.80;;;13.98;;
76155;SDS011;64906;51.290;7.348;2023-11-21T09:45:51;21.65;;;12.90;;
76155;SDS011;64906;51.290;7.348;2023-11-21T09:48:22;19.42;;;12.27;;
76155;SDS011;64906;51.290;7.348;2023-11-21T09:50:49;19.65;;;12.52;;
76155;SDS011;64906;51.290;7.348;2023-11-21T09:53:17;21.80;;;13.50;;
76155;SDS011;64906;51.290;7.348;2023-11-21T09:55:46;19.95;;;12.20;;
76155;SDS011;64906;51.290;7.348;2023-11-21T09:58:13;20.48;;;12.43;;
76155;SDS011;64906;51.290;7.348;2023-11-21T10:00:40;21.00;;;14.20;;
76155;SDS011;64906;51.290;7.348;2023-11-21T10:03:07;20.38;;;12.75;;
76155;SDS011;64906;51.290;7.348;2023-11-21T10:05:33;21.42;;;13.30;;
76155;SDS011;64906;51.290;7.348;2023-11-21T10:07:59;23.63;;;13.38;;
76155;SDS011;64906;51.290;7.348;2023-11-21T10:10:25;21.02;;;13.52;;
76155;SDS011;64906;51.290;7.348;2023-11-21T10:12:53;20.92;;;12.98;;
76155;SDS011;64906;51.290;7.348;2023-11-21T10:15:21;22.75;;;13.68;;
76155;SDS011;64906;51.290;7.348;2023-11-21T10:17:48;21.55;;;13.05;;
76155;SDS011;64906;51.290;7.348;2023-11-21T10:20:15;22.40;;;14.02;;
76155;SDS011;64906;51.290;7.348;2023-11-21T10:22:41;21.58;;;13.68;;
76155;SDS011;64906;51.290;7.348;2023-11-21T10:25:08;21.33;;;13.77;;
76155;SDS011;64906;51.290;7.348;2023-11-21T10:27:39;21.52;;;13.98;;
76155;SDS011;64906;51.290;7.348;2023-11-21T10:30:06;22.77;;;14.57;;
76155;SDS011;64906;51.290;7.348;2023-11-21T10:32:36;22.38;;;14.30;;
76155;SDS011;64906;51.290;7.348;2023-11-21T10:35:02;22.65;;;15.13;;
76155;SDS011;64906;51.290;7.348;2023-11-21T10:37:34;23.00;;;14.30;;
76155;SDS011;64906;51.290;7.348;2023-11-21T10:40:00;21.95;;;14.02;;
76155;SDS011;64906;51.290;7.348;2023-11-21T10:42:25;21.77;;;13.93;;
76155;SDS011;64906;51.290;7.348;2023-11-21T10:44:52;23.55;;;15.40;;
76155;SDS011;64906;51.290;7.348;2023-11-21T10:47:20;23.15;;;15.13;;
76155;SDS011;64906;51.290;7.348;2023-11-21T10:49:51;23.00;;;14.32;;
76155;SDS011;64906;51.290;7.348;2023-11-21T10:52:18;24.38;;;14.63;;
76155;SDS011;64906;51.290;7.348;2023-11-21T10:54:45;25.83;;;15.13;;
76155;SDS011;64906;51.290;7.348;2023-11-21T10:57:12;26.17;;;14.45;;
76155;SDS011;64906;51.290;7.348;2023-11-21T10:59:42;21.45;;;14.15;;
76155;SDS011;64906;51.290;7.348;2023-11-21T11:02:23;22.08;;;14.00;;
76155;SDS011;64906;51.290;7.348;2023-11-21T11:04:53;23.25;;;15.25;;
76155;SDS011;64906;51.290;7.348;2023-11-21T11:07:25;22.48;;;14.60;;
76155;SDS011;64906;51.290;7.348;2023-11-21T11:09:53;26.80;;;15.27;;
76155;SDS011;64906;51.290;7.348;2023-11-21T11:12:20;23.25;;;15.57;;
76155;SDS011;64906;51.290;7.348;2023-11-21T11:14:46;25.27;;;15.77;;
76155;SDS011;64906;51.290;7.348;2023-11-21T11:17:13;27.98;;;15.70;;
76155;SDS011;64906;51.290;7.348;2023-11-21T11:19:39;29.05;;;17.65;;
76155;SDS011;64906;51.290;7.348;2023-11-21T11:27:35;25.38;;;16.35;;
76155;SDS011;64906;51.290;7.348;2023-11-21T11:38:16;27.67;;;16.83;;
76155;SDS011;64906;51.290;7.348;2023-11-21T11:40:46;27.38;;;17.38;;
76155;SDS011;64906;51.290;7.348;2023-11-21T11:43:12;29.00;;;17.40;;
76155;SDS011;64906;51.290;7.348;2023-11-21T11:45:38;27.67;;;18.13;;
76155;SDS011;64906;51.290;7.348;2023-11-21T11:48:07;27.20;;;16.52;;
76155;SDS011;64906;51.290;7.348;2023-11-21T11:50:41;29.63;;;17.05;;
76155;SDS011;64906;51.290;7.348;2023-11-21T11:53:25;27.73;;;17.35;;
76155;SDS011;64906;51.290;7.348;2023-11-21T11:55:57;25.73;;;16.03;;
76155;SDS011;64906;51.290;7.348;2023-11-21T11:58:43;26.33;;;16.10;;
76155;SDS011;64906;51.290;7.348;2023-11-21T12:01:08;23.17;;;16.27;;
76155;SDS011;64906;51.290;7.348;2023-11-21T12:03:36;27.08;;;17.15;;
76155;SDS011;64906;51.290;7.348;2023-11-21T12:06:02;26.80;;;17.07;;
76155;SDS011;64906;51.290;7.348;2023-11-21T12:08:28;27.13;;;18.00;;
76155;SDS011;64906;51.290;7.348;2023-11-21T12:10:56;24.10;;;15.32;;
76155;SDS011;64906;51.290;7.348;2023-11-21T12:13:22;26.17;;;16.58;;
76155;SDS011;64906;51.290;7.348;2023-11-21T12:15:48;26.77;;;16.58;;
76155;SDS011;64906;51.290;7.348;2023-11-21T12:18:14;23.05;;;14.88;;
76155;SDS011;64906;51.290;7.348;2023-11-21T12:20:39;24.77;;;15.65;;
76155;SDS011;64906;51.290;7.348;2023-11-21T12:23:06;22.45;;;15.27;;
76155;SDS011;64906;51.290;7.348;2023-11-21T12:25:33;22.25;;;14.80;;
76155;SDS011;64906;51.290;7.348;2023-11-21T12:28:00;23.65;;;15.00;;
76155;SDS011;64906;51.290;7.348;2023-11-21T12:30:30;27.60;;;16.45;;
76155;SDS011;64906;51.290;7.348;2023-11-21T12:32:57;23.38;;;15.25;;
76155;SDS011;64906;51.290;7.348;2023-11-21T12:35:25;24.50;;;15.45;;
76155;SDS011;64906;51.290;7.348;2023-11-21T12:37:55;28.92;;;15.27;;
76155;SDS011;64906;51.290;7.348;2023-11-21T12:40:22;23.30;;;14.20;;
76155;SDS011;64906;51.290;7.348;2023-11-21T12:42:48;24.42;;;14.30;;
76155;SDS011;64906;51.290;7.348;2023-11-21T12:47:45;23.98;;;14.82;;
76155;SDS011;64906;51.290;7.348;2023-11-21T12:50:12;24.08;;;14.98;;
76155;SDS011;64906;51.290;7.348;2023-11-21T12:52:43;24.98;;;14.43;;
76155;SDS011;64906;51.290;7.348;2023-11-21T12:57:42;23.35;;;15.40;;
76155;SDS011;64906;51.290;7.348;2023-11-21T13:00:09;24.25;;;14.73;;
76155;SDS011;64906;51.290;7.348;2023-11-21T13:02:38;23.20;;;13.90;;
76155;SDS011;64906;51.290;7.348;2023-11-21T13:05:08;25.30;;;14.15;;
76155;SDS011;64906;51.290;7.348;2023-11-21T13:07:43;23.42;;;14.02;;
76155;SDS011;64906;51.290;7.348;2023-11-21T13:10:12;23.67;;;14.55;;
76155;SDS011;64906;51.290;7.348;2023-11-21T13:12:42;21.67;;;14.10;;
76155;SDS011;64906;51.290;7.348;2023-11-21T13:15:09;22.30;;;14.48;;
76155;SDS011;64906;51.290;7.348;2023-11-21T13:17:35;23.30;;;14.13;;
76155;SDS011;64906;51.290;7.348;2023-11-21T13:20:01;22.77;;;14.90;;
76155;SDS011;64906;51.290;7.348;2023-11-21T13:22:30;21.25;;;13.50;;
76155;SDS011;64906;51.290;7.348;2023-11-21T13:24:58;22.13;;;13.80;;
76155;SDS011;64906;51.290;7.348;2023-11-21T13:27:23;22.38;;;14.20;;
76155;SDS011;64906;51.290;7.348;2023-11-21T13:29:50;24.25;;;13.68;;
76155;SDS011;64906;51.290;7.348;2023-11-21T13:32:16;22.17;;;13.30;;
76155;SDS011;64906;51.290;7.348;2023-11-21T13:34:45;22.88;;;14.18;;
76155;SDS011;64906;51.290;7.348;2023-11-21T13:37:12;23.08;;;14.40;;
76155;SDS011;64906;51.290;7.348;2023-11-21T13:39:37;21.05;;;13.25;;
76155;SDS011;64906;51.290;7.348;2023-11-21T13:44:36;21.98;;;13.23;;
76155;SDS011;64906;51.290;7.348;2023-11-21T13:47:03;24.08;;;13.65;;
76155;SDS011;64906;51.290;7.348;2023-11-21T13:49:30;22.20;;;13.40;;
76155;SDS011;64906;51.290;7.348;2023-11-21T13:52:05;22.85;;;13.35;;
76155;SDS011;64906;51.290;7.348;2023-11-21T13:54:32;21.92;;;12.80;;
76155;SDS011;64906;51.290;7.348;2023-11-21T13:56:57;18.77;;;11.90;;
76155;SDS011;64906;51.290;7.348;2023-11-21T13:59:24;21.30;;;12.65;;
76155;SDS011;64906;51.290;7.348;2023-11-21T14:01:53;20.80;;;12.40;;
76155;SDS011;64906;51.290;7.348;2023-11-21T14:04:24;21.73;;;12.13;;
76155;SDS011;64906;51.290;7.348;2023-11-21T14:07:04;21.55;;;12.93;;
76155;SDS011;64906;51.290;7.348;2023-11-21T14:09:47;19.73;;;11.45;;
76155;SDS011;64906;51.290;7.348;2023-11-21T14:12:14;21.13;;;12.38;;
76155;SDS011;64906;51.290;7.348;2023-11-21T14:14:40;18.52;;;11.48;;
76155;SDS011;64906;51.290;7.348;2023-11-21T14:17:06;19.42;;;12.35;;
76155;SDS011;64906;51.290;7.348;2023-11-21T14:19:31;20.02;;;11.98;;
76155;SDS011;64906;51.290;7.348;2023-11-21T14:21:58;20.02;;;12.05;;
76155;SDS011;64906;51.290;7.348;2023-11-21T14:24:24;18.63;;;10.90;;
76155;SDS011;64906;51.290;7.348;2023-11-21T14:26:50;18.02;;;11.27;;
76155;SDS011;64906;51.290;7.348;2023-11-21T14:29:16;21.30;;;11.50;;
76155;SDS011;64906;51.290;7.348;2023-11-21T14:31:45;18.38;;;11.75;;
76155;SDS011;64906;51.290;7.348;2023-11-21T14:34:12;19.30;;;11.40;;
76155;SDS011;64906;51.290;7.348;2023-11-21T14:36:39;19.95;;;11.20;;
76155;SDS011;64906;51.290;7.348;2023-11-21T14:39:05;18.95;;;10.80;;
76155;SDS011;64906;51.290;7.348;2023-11-21T14:41:34;17.83;;;10.68;;
76155;SDS011;64906;51.290;7.348;2023-11-21T14:44:01;18.17;;;11.02;;
76155;SDS011;64906;51.290;7.348;2023-11-21T14:46:29;17.40;;;11.13;;
76155;SDS011;64906;51.290;7.348;2023-11-21T14:48:54;19.27;;;10.85;;
76155;SDS011;64906;51.290;7.348;2023-11-21T14:51:44;17.25;;;11.52;;